Time;durP1;ratioP1;P1;durP2;ratioP2;P2;SDS_P1;SDS_P2;PMS_P1;PMS_P2;Temp;Humidity;BMP_temperature;BMP_pressure;BME280_temperature;BME280_humidity;BME280_pressure;Samples;Min_cycle;Max_cycle;Signal;HPM_P1;HPM_P2
2021/10/03 00:01:18;;;;;;;16.60;4.82;;;30.30;83.60;;;;;;5102668;28;20052;-49
2021/10/03 00:03:48;;;;;;;14.63;4.70;;;30.20;83.40;;;;;;5103637;28;20028;-44
2021/10/03 00:06:19;;;;;;;6.82;3.90;;;30.20;83.40;;;;;;5107001;28;20324;-54
2021/10/03 00:08:46;;;;;;;9.38;4.82;;;30.20;83.30;;;;;;5108023;28;20032;-46
2021/10/03 00:11:13;;;;;;;9.30;4.40;;;30.20;83.40;;;;;;5107718;28;20358;-52
2021/10/03 00:13:41;;;;;;;13.25;4.60;;;30.20;83.50;;;;;;5108020;28;20102;-48
2021/10/03 00:16:09;;;;;;;10.45;4.35;;;30.20;83.40;;;;;;5107506;28;20020;-45
2021/10/03 00:18:37;;;;;;;13.60;4.53;;;30.20;83.30;;;;;;5107859;28;20228;-49
2021/10/03 00:21:05;;;;;;;10.35;4.57;;;30.10;83.20;;;;;;5106481;28;20343;-46
2021/10/03 00:23:34;;;;;;;9.32;4.50;;;30.20;83.20;;;;;;5107600;28;20039;-43
2021/10/03 00:26:01;;;;;;;8.10;4.80;;;30.10;83.00;;;;;;5107483;28;20220;-50
2021/10/03 00:28:28;;;;;;;12.63;4.65;;;30.10;83.00;;;;;;5107643;28;20028;-50
2021/10/03 00:30:54;;;;;;;12.05;4.70;;;30.10;83.10;;;;;;5107221;28;20320;-48
2021/10/03 00:33:21;;;;;;;8.38;4.13;;;30.10;83.10;;;;;;5107493;28;20209;-46
2021/10/03 00:35:48;;;;;;;13.05;4.28;;;30.10;83.00;;;;;;5107402;28;20012;-51
2021/10/03 00:38:17;;;;;;;11.93;4.03;;;30.10;82.90;;;;;;5107486;28;20028;-50
2021/10/03 00:40:45;;;;;;;6.85;4.00;;;30.00;82.80;;;;;;5107281;28;20016;-51
2021/10/03 00:43:13;;;;;;;9.55;4.22;;;30.00;82.80;;;;;;5107434;28;20028;-51
2021/10/03 00:45:43;;;;;;;10.95;4.20;;;30.00;82.70;;;;;;5106946;28;20040;-51
2021/10/03 00:48:09;;;;;;;13.57;4.00;;;30.00;82.70;;;;;;5107041;28;20263;-50
2021/10/03 00:50:38;;;;;;;13.43;4.25;;;30.10;82.80;;;;;;5106792;28;20335;-45
2021/10/03 00:53:05;;;;;;;10.40;4.50;;;30.00;82.60;;;;;;5106806;28;20035;-48
2021/10/03 00:55:33;;;;;;;11.63;5.85;;;30.00;82.60;;;;;;5106962;28;20012;-49
2021/10/03 00:58:00;;;;;;;11.88;6.20;;;30.00;82.50;;;;;;5107051;28;20032;-51
2021/10/03 01:00:29;;;;;;;10.02;6.15;;;30.00;82.50;;;;;;5106559;28;20047;-49
2021/10/03 01:02:57;;;;;;;12.32;6.13;;;30.00;82.50;;;;;;5106800;28;20091;-47
2021/10/03 01:05:24;;;;;;;9.15;5.65;;;30.00;82.70;;;;;;5106738;28;20020;-49
2021/10/03 01:07:51;;;;;;;7.63;5.38;;;29.90;82.30;;;;;;5106435;28;20110;-48
2021/10/03 01:10:23;;;;;;;10.65;5.68;;;29.90;82.20;;;;;;5106612;28;20023;-51
2021/10/03 01:13:03;;;;;;;13.02;5.47;;;29.90;82.00;;;;;;5106584;28;20039;-51
2021/10/03 01:15:31;;;;;;;7.88;4.40;;;29.90;81.80;;;;;;5106168;28;20111;-52
2021/10/03 01:17:58;;;;;;;8.77;4.30;;;29.90;81.80;;;;;;5106551;28;20023;-48
2021/10/03 01:20:24;;;;;;;10.10;4.50;;;29.90;81.70;;;;;;5106404;28;20354;-53
2021/10/03 01:22:52;;;;;;;8.23;4.35;;;29.90;81.50;;;;;;5106421;28;20090;-52
2021/10/03 01:25:20;;;;;;;7.22;4.05;;;29.90;81.40;;;;;;5106425;28;20070;-51
2021/10/03 01:27:49;;;;;;;7.22;4.32;;;29.90;81.20;;;;;;5104939;28;20247;-50
2021/10/03 01:30:18;;;;;;;10.98;4.65;;;29.80;81.00;;;;;;5106329;28;20049;-54
2021/10/03 01:32:44;;;;;;;13.30;6.43;;;29.90;81.10;;;;;;5106070;28;20024;-46
2021/10/03 01:35:12;;;;;;;13.35;7.82;;;29.80;81.00;;;;;;5106110;28;20062;-46
2021/10/03 01:37:41;;;;;;;14.43;6.45;;;29.80;80.90;;;;;;5106121;28;20373;-48
2021/10/03 01:40:10;;;;;;;9.65;5.20;;;29.80;80.80;;;;;;5106166;28;20361;-49
2021/10/03 01:42:38;;;;;;;10.20;4.65;;;29.80;80.50;;;;;;5105904;28;20019;-48
2021/10/03 01:45:08;;;;;;;10.45;4.97;;;29.70;80.10;;;;;;5106140;28;20070;-44
2021/10/03 01:47:55;;;;;;;8.02;4.00;;;29.70;80.00;;;;;;5105936;28;20020;-47
2021/10/03 01:50:21;;;;;;;9.02;3.85;;;29.70;79.70;;;;;;5105746;28;20392;-44
2021/10/03 01:52:49;;;;;;;10.38;3.70;;;29.70;79.50;;;;;;5104709;28;20059;-48
2021/10/03 01:55:18;;;;;;;9.57;3.35;;;29.70;79.30;;;;;;5105687;28;20065;-51
2021/10/03 01:57:45;;;;;;;6.50;3.15;;;29.70;79.00;;;;;;5105740;28;20024;-47
2021/10/03 02:00:12;;;;;;;6.95;3.35;;;29.70;78.80;;;;;;5105412;28;20374;-46
2021/10/03 02:02:38;;;;;;;4.32;2.80;;;29.70;78.60;;;;;;5105559;28;20201;-50
2021/10/03 02:05:06;;;;;;;5.75;3.03;;;29.70;78.40;;;;;;5105589;28;20098;-53
2021/10/03 02:07:33;;;;;;;7.45;3.13;;;29.70;78.20;;;;;;5105815;28;20087;-48
2021/10/03 02:10:00;;;;;;;7.93;3.03;;;29.60;78.10;;;;;;5105385;28;20055;-49
2021/10/03 02:12:26;;;;;;;6.35;3.08;;;29.60;77.90;;;;;;5105441;28;20035;-53
2021/10/03 02:14:53;;;;;;;4.10;2.60;;;29.60;77.80;;;;;;5105506;28;20082;-49
2021/10/03 02:17:19;;;;;;;6.60;2.70;;;29.60;77.60;;;;;;5105278;28;20016;-48
2021/10/03 02:19:46;;;;;;;8.25;2.90;;;29.60;77.60;;;;;;5105497;28;20016;-54
2021/10/03 02:22:14;;;;;;;5.70;3.00;;;29.60;77.40;;;;;;5105368;28;20012;-52
2021/10/03 02:24:41;;;;;;;5.15;3.25;;;29.60;77.60;;;;;;5105515;28;20059;-55
2021/10/03 02:27:07;;;;;;;5.57;3.38;;;29.60;77.40;;;;;;5104849;28;20020;-54
2021/10/03 02:29:34;;;;;;;6.65;3.95;;;29.50;77.30;;;;;;5105495;28;20027;-47
2021/10/03 02:32:00;;;;;;;5.70;3.38;;;29.50;77.20;;;;;;5104843;28;20077;-51
2021/10/03 02:34:27;;;;;;;7.55;3.78;;;29.50;77.20;;;;;;5104932;28;20027;-52
2021/10/03 02:36:54;;;;;;;6.95;3.30;;;29.50;77.10;;;;;;5105035;28;20020;-51
2021/10/03 02:39:20;;;;;;;6.40;3.60;;;29.50;76.90;;;;;;5105163;28;20083;-48
2021/10/03 02:41:48;;;;;;;12.57;6.25;;;29.50;77.00;;;;;;5104948;28;20387;-50
2021/10/03 02:44:18;;;;;;;17.83;10.63;;;29.50;77.10;;;;;;5105324;28;20038;-51
2021/10/03 02:46:45;;;;;;;21.45;12.93;;;29.40;77.10;;;;;;5104639;28;20255;-44
2021/10/03 02:49:12;;;;;;;27.80;16.75;;;29.40;77.40;;;;;;5105061;28;20023;-46
2021/10/03 02:51:38;;;;;;;25.80;18.65;;;29.40;77.40;;;;;;5104569;28;20023;-49
2021/10/03 02:54:05;;;;;;;32.08;19.65;;;29.40;77.30;;;;;;5104844;28;20034;-49
2021/10/03 02:56:32;;;;;;;32.85;18.70;;;29.40;77.40;;;;;;5104622;28;20019;-50
2021/10/03 02:58:59;;;;;;;31.77;19.40;;;29.30;77.50;;;;;;5104989;28;20028;-48
2021/10/03 03:01:26;;;;;;;31.80;17.45;;;29.30;77.40;;;;;;5104337;28;20063;-44
2021/10/03 03:03:53;;;;;;;20.23;12.60;;;29.30;77.40;;;;;;5104805;28;20087;-52
2021/10/03 03:06:19;;;;;;;16.70;10.02;;;29.30;77.10;;;;;;5104510;28;20037;-50
2021/10/03 03:08:46;;;;;;;14.23;9.05;;;29.30;76.90;;;;;;5104610;28;20028;-43
2021/10/03 03:11:13;;;;;;;16.90;8.63;;;29.30;77.00;;;;;;5104442;28;20016;-49
2021/10/03 03:13:40;;;;;;;14.25;7.13;;;29.30;77.30;;;;;;5103370;28;20032;-45
2021/10/03 03:16:06;;;;;;;10.75;6.15;;;29.20;77.70;;;;;;5104169;28;20016;-50
2021/10/03 03:18:33;;;;;;;16.88;5.75;;;29.20;78.30;;;;;;5104278;28;20024;-49
2021/10/03 03:21:00;;;;;;;15.40;5.53;;;29.30;79.10;;;;;;5103230;28;20044;-52
2021/10/03 03:23:26;;;;;;;12.65;5.07;;;29.20;79.60;;;;;;5104308;28;20256;-54
2021/10/03 03:25:53;;;;;;;16.48;5.82;;;29.20;80.10;;;;;;5104225;28;20027;-53
2021/10/03 03:28:19;;;;;;;25.17;11.75;;;29.20;80.40;;;;;;5104386;28;20024;-54
2021/10/03 03:30:46;;;;;;;25.55;14.63;;;29.10;80.50;;;;;;5104135;28;20024;-56
2021/10/03 03:33:15;;;;;;;30.60;18.17;;;29.20;80.80;;;;;;5104186;28;20193;-52
2021/10/03 03:35:43;;;;;;;44.30;24.75;;;29.10;81.00;;;;;;5104153;28;20087;-52
2021/10/03 03:38:10;;;;;;;40.65;26.17;;;29.10;81.20;;;;;;5104071;28;20083;-55
2021/10/03 03:40:37;;;;;;;52.13;32.47;;;29.10;81.30;;;;;;5104016;28;20332;-52
2021/10/03 03:43:03;;;;;;;54.80;35.22;;;29.10;81.30;;;;;;5104123;28;20035;-54
2021/10/03 03:45:30;;;;;;;50.65;32.78;;;29.00;81.20;;;;;;5104067;28;20324;-59
2021/10/03 03:48:01;;;;;;;40.25;28.08;;;29.00;81.20;;;;;;5104047;28;20183;-54
2021/10/03 03:50:34;;;;;;;32.17;21.05;;;29.00;81.10;;;;;;5103894;28;20359;-52
2021/10/03 03:53:01;;;;;;;25.73;16.98;;;29.00;81.20;;;;;;5103800;28;20032;-47
2021/10/03 03:55:28;;;;;;;20.85;13.10;;;29.00;81.20;;;;;;5103941;28;20069;-51
2021/10/03 03:57:54;;;;;;;17.80;10.88;;;29.00;81.30;;;;;;5104148;28;20293;-45
2021/10/03 04:00:21;;;;;;;18.08;9.05;;;29.00;81.50;;;;;;5103666;28;20248;-50
2021/10/03 04:02:48;;;;;;;15.65;6.75;;;29.00;81.60;;;;;;5103837;28;20020;-44
2021/10/03 04:05:15;;;;;;;13.00;6.20;;;29.00;81.60;;;;;;5103913;28;20020;-43
2021/10/03 04:07:41;;;;;;;16.90;6.40;;;29.00;81.50;;;;;;5103655;28;20309;-46
2021/10/03 04:10:11;;;;;;;11.48;5.43;;;28.90;81.30;;;;;;5103808;28;20047;-45
2021/10/03 04:12:38;;;;;;;9.50;4.88;;;28.90;81.30;;;;;;5103688;28;20243;-44
2021/10/03 04:15:06;;;;;;;6.45;4.20;;;28.90;81.10;;;;;;5103562;28;20323;-49
2021/10/03 04:17:36;;;;;;;8.95;4.22;;;28.90;80.80;;;;;;5103593;28;20084;-53
2021/10/03 04:20:05;;;;;;;6.45;3.70;;;28.90;80.60;;;;;;5103763;28;20023;-57
2021/10/03 04:22:32;;;;;;;8.20;3.67;;;28.90;80.40;;;;;;5103524;28;20020;-56
2021/10/03 04:24:59;;;;;;;10.07;3.90;;;28.90;80.10;;;;;;5103695;28;20026;-54
2021/10/03 04:27:26;;;;;;;5.63;3.08;;;28.90;80.00;;;;;;5103529;28;20328;-52
2021/10/03 04:29:52;;;;;;;5.68;2.83;;;28.90;79.60;;;;;;5103783;28;20027;-51
2021/10/03 04:32:19;;;;;;;9.57;3.08;;;28.80;79.40;;;;;;5103504;28;20030;-51
2021/10/03 04:34:47;;;;;;;5.13;2.88;;;28.80;79.20;;;;;;5103539;28;20326;-52
2021/10/03 04:37:14;;;;;;;6.22;2.60;;;28.80;79.10;;;;;;5103425;28;20055;-55
2021/10/03 04:39:40;;;;;;;7.05;2.83;;;28.80;79.00;;;;;;5103986;28;20046;-48
2021/10/03 04:42:07;;;;;;;5.75;2.70;;;28.80;78.60;;;;;;5103510;28;20020;-46
2021/10/03 04:44:34;;;;;;;6.05;2.70;;;28.80;78.40;;;;;;5103825;28;20028;-54
2021/10/03 04:47:00;;;;;;;6.47;2.42;;;28.80;78.10;;;;;;5103452;28;20212;-46
2021/10/03 04:49:27;;;;;;;5.53;2.63;;;28.80;78.10;;;;;;5103300;28;20035;-51
2021/10/03 04:51:54;;;;;;;5.55;2.42;;;28.80;78.00;;;;;;5105575;28;20030;-51
2021/10/03 04:54:20;;;;;;;4.38;2.45;;;28.80;77.90;;;;;;5107501;28;20305;-52
2021/10/03 04:56:47;;;;;;;4.10;2.28;;;28.80;77.70;;;;;;5106980;28;20012;-54
2021/10/03 04:59:14;;;;;;;3.55;2.20;;;28.80;77.40;;;;;;5105888;28;20032;-51
2021/10/03 05:01:40;;;;;;;3.38;2.25;;;28.80;77.60;;;;;;5106798;28;20094;-59
2021/10/03 05:04:08;;;;;;;5.70;2.20;;;28.80;77.50;;;;;;5107356;28;20057;-53
2021/10/03 05:06:35;;;;;;;4.97;2.22;;;28.70;76.70;;;;;;5106701;28;20031;-48
2021/10/03 05:09:02;;;;;;;4.15;2.10;;;28.70;76.50;;;;;;5107150;28;20098;-48
2021/10/03 05:11:31;;;;;;;3.92;2.30;;;28.70;76.50;;;;;;5106637;28;20024;-47
2021/10/03 05:14:00;;;;;;;4.10;2.53;;;28.70;76.30;;;;;;5106913;28;20024;-45
2021/10/03 05:16:26;;;;;;;5.93;3.47;;;28.70;76.40;;;;;;5106951;28;20071;-49
2021/10/03 05:18:53;;;;;;;5.47;4.00;;;28.70;76.40;;;;;;5106948;28;20027;-44
2021/10/03 05:21:20;;;;;;;5.55;3.65;;;28.70;76.50;;;;;;5106453;28;20020;-48
2021/10/03 05:23:46;;;;;;;6.15;3.60;;;28.70;76.70;;;;;;5106830;28;20052;-47
2021/10/03 05:26:13;;;;;;;4.07;2.95;;;28.70;76.80;;;;;;5106823;28;20267;-49
2021/10/03 05:28:39;;;;;;;4.75;2.75;;;28.70;76.80;;;;;;5106596;28;20028;-50
2021/10/03 05:31:06;;;;;;;5.25;2.65;;;28.60;76.70;;;;;;5106496;28;20028;-50
2021/10/03 05:33:33;;;;;;;4.25;2.38;;;28.60;76.70;;;;;;5106502;28;20024;-48
2021/10/03 05:36:01;;;;;;;4.80;2.30;;;28.60;76.90;;;;;;5106297;28;20019;-49
2021/10/03 05:38:28;;;;;;;5.25;2.33;;;28.60;76.90;;;;;;5106481;28;20138;-54
2021/10/03 05:40:55;;;;;;;4.90;2.50;;;28.60;76.80;;;;;;5106208;28;20370;-54
2021/10/03 05:43:21;;;;;;;4.32;2.17;;;28.60;76.60;;;;;;5106355;28;20099;-54
2021/10/03 05:45:48;;;;;;;3.83;1.83;;;28.60;76.50;;;;;;5106016;28;20047;-54
2021/10/03 05:48:14;;;;;;;4.20;2.40;;;28.60;76.10;;;;;;5106218;28;20087;-55
2021/10/03 05:50:41;;;;;;;4.03;2.10;;;28.60;76.10;;;;;;5105924;28;20016;-52
2021/10/03 05:53:08;;;;;;;3.70;2.30;;;28.60;76.00;;;;;;5104653;28;20035;-56
2021/10/03 05:55:35;;;;;;;3.65;2.22;;;28.60;75.90;;;;;;5105907;28;20305;-54
2021/10/03 05:58:02;;;;;;;3.95;1.90;;;28.50;76.00;;;;;;5106060;28;20043;-56
2021/10/03 06:00:28;;;;;;;5.03;2.67;;;28.50;76.00;;;;;;5105468;28;20111;-55
2021/10/03 06:02:55;;;;;;;3.17;2.65;;;28.50;76.00;;;;;;5104732;28;20043;-55
2021/10/03 06:05:22;;;;;;;5.45;2.40;;;28.50;76.10;;;;;;5105708;28;20087;-54
2021/10/03 06:07:49;;;;;;;3.05;2.40;;;28.50;76.30;;;;;;5105612;28;20031;-56
2021/10/03 06:10:15;;;;;;;4.57;2.60;;;28.50;76.30;;;;;;5105620;28;20016;-52
2021/10/03 06:12:42;;;;;;;9.45;2.67;;;28.50;76.30;;;;;;5105478;28;20032;-52
2021/10/03 06:15:09;;;;;;;6.68;4.25;;;28.50;76.30;;;;;;5105388;28;20016;-54
2021/10/03 06:17:37;;;;;;;11.48;6.95;;;28.50;76.30;;;;;;5105484;28;20079;-53
2021/10/03 06:20:05;;;;;;;17.38;9.10;;;28.40;76.30;;;;;;5087576;28;20062;-56
2021/10/03 06:22:31;;;;;;;14.07;9.82;;;28.40;76.60;;;;;;5105148;28;20334;-54
2021/10/03 06:24:58;;;;;;;11.48;8.10;;;28.40;76.50;;;;;;5105302;28;20215;-53
2021/10/03 06:27:25;;;;;;;12.38;6.38;;;28.40;76.50;;;;;;5105224;28;20039;-53
2021/10/03 06:29:52;;;;;;;7.38;5.78;;;28.40;76.60;;;;;;5105098;28;20016;-53
2021/10/03 06:32:19;;;;;;;6.90;4.47;;;28.40;76.70;;;;;;5105087;28;20079;-52
2021/10/03 06:34:46;;;;;;;7.43;4.38;;;28.40;76.80;;;;;;5105081;28;20016;-54
2021/10/03 06:37:13;;;;;;;8.75;3.80;;;28.40;76.90;;;;;;5087019;28;20247;-58
2021/10/03 06:39:39;;;;;;;8.30;3.42;;;28.40;77.00;;;;;;5105529;28;20049;-55
2021/10/03 06:42:06;;;;;;;6.00;3.10;;;28.40;76.90;;;;;;5104825;28;20039;-55
2021/10/03 06:44:32;;;;;;;7.07;3.03;;;28.40;76.90;;;;;;5105268;28;20055;-57
2021/10/03 06:47:00;;;;;;;6.40;2.88;;;28.40;76.90;;;;;;5105230;28;20028;-54
2021/10/03 06:49:27;;;;;;;7.25;2.70;;;28.30;77.00;;;;;;5105228;28;20028;-56
2021/10/03 06:51:53;;;;;;;6.53;2.38;;;28.30;77.00;;;;;;5104451;28;20031;-52
2021/10/03 06:54:20;;;;;;;3.83;2.67;;;28.30;76.90;;;;;;5105263;28;20252;-53
2021/10/03 06:56:47;;;;;;;5.55;2.70;;;28.30;77.10;;;;;;5104729;28;20306;-55
2021/10/03 06:59:13;;;;;;;4.18;2.20;;;28.30;77.10;;;;;;5104916;28;20292;-46
2021/10/03 07:01:40;;;;;;;4.05;2.60;;;28.30;77.20;;;;;;5104519;28;20055;-47
2021/10/03 07:04:06;;;;;;;3.80;2.10;;;28.30;77.70;;;;;;5104993;28;20023;-47
2021/10/03 07:06:33;;;;;;;7.70;2.40;;;28.30;77.10;;;;;;5104432;28;20343;-55
2021/10/03 07:08:59;;;;;;;3.83;1.80;;;28.30;77.00;;;;;;5104943;28;20043;-49
2021/10/03 07:11:26;;;;;;;3.58;2.13;;;28.30;77.00;;;;;;5104460;28;20043;-55
2021/10/03 07:13:53;;;;;;;4.63;2.00;;;28.30;76.90;;;;;;5104479;28;20296;-52
2021/10/03 07:16:19;;;;;;;6.72;2.00;;;28.30;76.70;;;;;;5103583;28;20036;-48
2021/10/03 07:18:46;;;;;;;4.05;2.13;;;28.30;76.50;;;;;;5104322;28;20091;-49
2021/10/03 07:21:13;;;;;;;4.85;2.40;;;28.30;76.30;;;;;;5104343;28;20034;-50
2021/10/03 07:23:39;;;;;;;3.28;1.98;;;28.30;76.20;;;;;;5104100;28;20032;-55
2021/10/03 07:26:07;;;;;;;4.78;2.08;;;28.30;76.10;;;;;;5104451;28;20024;-46
2021/10/03 07:28:34;;;;;;;4.20;1.70;;;28.20;75.90;;;;;;5104470;28;20086;-46
2021/10/03 07:31:02;;;;;;;5.45;2.03;;;28.20;75.80;;;;;;5104509;28;20020;-44
2021/10/03 07:33:28;;;;;;;5.40;3.30;;;28.20;75.90;;;;;;5104347;28;20137;-47
2021/10/03 07:35:55;;;;;;;11.98;5.93;;;28.20;76.00;;;;;;5104180;28;20038;-41
2021/10/03 07:38:22;;;;;;;15.40;9.00;;;28.20;76.00;;;;;;5104135;28;20028;-41
2021/10/03 07:40:48;;;;;;;17.40;13.05;;;28.20;76.20;;;;;;5104290;28;20024;-42
2021/10/03 07:43:15;;;;;;;21.40;13.82;;;28.20;76.10;;;;;;5104207;28;20091;-47
2021/10/03 07:45:42;;;;;;;22.23;15.23;;;28.20;75.90;;;;;;5103912;28;20023;-44
2021/10/03 07:48:08;;;;;;;23.17;15.32;;;28.20;76.10;;;;;;5104281;28;20035;-42
2021/10/03 07:50:35;;;;;;;23.48;16.58;;;28.20;76.00;;;;;;5103944;28;20024;-47
2021/10/03 07:53:02;;;;;;;27.65;17.58;;;28.10;76.10;;;;;;5103792;28;20035;-50
2021/10/03 07:55:28;;;;;;;22.40;16.67;;;28.10;76.30;;;;;;5103912;28;20026;-43
2021/10/03 07:58:03;;;;;;;15.90;11.93;;;28.10;76.50;;;;;;5104138;28;20083;-47
2021/10/03 08:00:33;;;;;;;13.98;7.47;;;28.10;76.50;;;;;;5103798;28;20048;-44
2021/10/03 08:03:00;;;;;;;7.00;5.50;;;28.10;76.70;;;;;;5103803;28;20059;-43
2021/10/03 08:05:27;;;;;;;10.93;5.65;;;28.10;76.70;;;;;;5104161;28;20020;-46
2021/10/03 08:07:53;;;;;;;9.45;5.50;;;28.10;76.80;;;;;;5103853;28;20388;-47
2021/10/03 08:10:20;;;;;;;9.38;6.40;;;28.10;76.90;;;;;;5103721;28;20020;-48
2021/10/03 08:12:47;;;;;;;14.05;9.35;;;28.00;76.90;;;;;;5103692;28;20024;-50
2021/10/03 08:15:14;;;;;;;19.25;11.73;;;28.10;77.00;;;;;;5103666;28;20016;-51
2021/10/03 08:17:40;;;;;;;21.27;11.85;;;28.10;77.00;;;;;;5103753;28;20024;-42
2021/10/03 08:20:07;;;;;;;14.38;9.55;;;28.10;77.10;;;;;;5103708;28;20220;-48
2021/10/03 08:22:34;;;;;;;10.73;7.63;;;28.10;77.20;;;;;;5103523;28;20336;-54
2021/10/03 08:25:05;;;;;;;12.40;6.72;;;28.10;77.40;;;;;;5102584;28;20272;-45
2021/10/03 08:27:35;;;;;;;13.05;7.60;;;28.00;77.30;;;;;;5107313;28;20043;-48
2021/10/03 08:30:03;;;;;;;14.15;8.93;;;28.00;77.50;;;;;;5106468;28;20216;-47
2021/10/03 08:32:29;;;;;;;16.40;11.15;;;28.00;77.50;;;;;;5107393;28;20030;-47
2021/10/03 08:34:56;;;;;;;17.63;11.55;;;28.00;77.60;;;;;;5107439;28;20043;-49
2021/10/03 08:37:23;;;;;;;14.55;10.48;;;27.90;77.40;;;;;;5107288;28;20355;-52
2021/10/03 08:39:50;;;;;;;12.80;9.02;;;28.00;77.60;;;;;;5107572;28;20020;-51
2021/10/03 08:42:18;;;;;;;12.70;7.28;;;28.00;77.70;;;;;;5107359;28;20024;-46
2021/10/03 08:44:45;;;;;;;12.93;8.25;;;28.00;77.70;;;;;;5106130;28;20286;-50
2021/10/03 08:47:12;;;;;;;14.52;8.98;;;27.90;77.60;;;;;;5107498;28;20051;-53
2021/10/03 08:49:40;;;;;;;15.60;8.77;;;28.00;77.60;;;;;;5107630;28;20048;-56
2021/10/03 08:52:07;;;;;;;16.92;9.90;;;27.90;77.60;;;;;;5105760;28;20081;-48
2021/10/03 08:54:38;;;;;;;18.40;9.90;;;27.90;77.60;;;;;;5107597;28;20024;-51
2021/10/03 08:57:06;;;;;;;18.00;10.35;;;27.90;77.50;;;;;;5106949;28;20016;-53
2021/10/03 08:59:33;;;;;;;14.35;9.65;;;27.90;77.60;;;;;;5107282;28;20020;-48
2021/10/03 09:02:03;;;;;;;18.45;11.32;;;27.90;77.70;;;;;;5106969;28;20048;-55
2021/10/03 09:04:38;;;;;;;18.90;10.27;;;27.90;77.70;;;;;;5106710;28;20024;-57
2021/10/03 09:07:14;;;;;;;17.63;11.45;;;27.90;77.80;;;;;;5107043;28;20075;-56
2021/10/03 09:09:53;;;;;;;16.08;10.00;;;27.90;77.80;;;;;;5107231;28;20032;-50
2021/10/03 09:12:28;;;;;;;15.80;8.18;;;27.90;77.80;;;;;;5106877;28;20043;-51
2021/10/03 09:14:55;;;;;;;13.98;7.82;;;27.90;77.70;;;;;;5105641;28;20020;-54
2021/10/03 09:17:23;;;;;;;12.35;6.47;;;27.90;77.70;;;;;;5106542;28;20024;-49
2021/10/03 09:20:15;;;;;;;13.70;6.40;;;27.80;77.50;;;;;;5105768;28;20030;-51
2021/10/03 09:23:02;;;;;;;9.75;5.55;;;27.80;77.70;;;;;;5106551;28;20038;-54
2021/10/03 09:25:43;;;;;;;7.68;4.43;;;27.80;77.70;;;;;;5106747;28;20019;-50
2021/10/03 09:28:25;;;;;;;9.50;3.90;;;27.80;77.60;;;;;;5106630;28;20085;-54
2021/10/03 09:30:53;;;;;;;10.27;3.50;;;27.80;77.60;;;;;;5106321;28;20028;-53
2021/10/03 09:33:20;;;;;;;8.70;3.65;;;27.80;77.50;;;;;;5106580;28;20047;-53
2021/10/03 09:35:58;;;;;;;8.57;3.83;;;27.80;77.40;;;;;;5106303;28;20085;-53
2021/10/03 09:38:29;;;;;;;7.32;3.40;;;27.80;77.60;;;;;;5106342;28;20067;-53
2021/10/03 09:41:05;;;;;;;5.53;3.17;;;27.80;77.40;;;;;;5106219;28;20020;-52
2021/10/03 09:43:54;;;;;;;4.75;2.80;;;27.80;77.40;;;;;;5106216;28;20028;-53
2021/10/03 09:46:42;;;;;;;6.43;3.08;;;27.70;77.40;;;;;;5105792;28;20062;-47
2021/10/03 09:49:14;;;;;;;6.03;2.72;;;27.70;77.60;;;;;;5106037;28;20020;-47
2021/10/03 09:51:47;;;;;;;7.18;2.78;;;27.70;77.80;;;;;;5105928;28;20034;-43
2021/10/03 09:54:19;;;;;;;3.78;2.10;;;27.70;77.90;;;;;;5106314;28;20078;-46
2021/10/03 09:56:48;;;;;;;5.80;2.80;;;27.70;78.10;;;;;;5088777;28;20103;-44
2021/10/03 09:59:15;;;;;;;5.70;2.53;;;27.70;78.30;;;;;;5106107;28;20020;-46
2021/10/03 10:01:44;;;;;;;7.20;2.22;;;27.70;78.40;;;;;;5087790;28;20044;-43
2021/10/03 10:04:13;;;;;;;5.70;2.78;;;27.60;78.20;;;;;;5105626;28;20345;-44
2021/10/03 10:06:40;;;;;;;5.80;2.13;;;27.60;78.70;;;;;;5105576;28;20065;-42
2021/10/03 10:09:09;;;;;;;3.38;2.10;;;27.60;77.90;;;;;;5106093;28;20065;-46
2021/10/03 10:12:07;;;;;;;3.95;2.00;;;27.70;77.80;;;;;;5105774;28;20012;-44
2021/10/03 10:14:40;;;;;;;7.38;2.40;;;27.60;77.70;;;;;;5105995;28;20028;-50
2021/10/03 10:17:26;;;;;;;7.40;2.20;;;27.60;77.90;;;;;;5104251;28;20066;-48
2021/10/03 10:19:57;;;;;;;3.30;2.10;;;27.60;78.00;;;;;;5105332;28;20103;-47
2021/10/03 10:22:24;;;;;;;5.47;2.10;;;27.60;78.00;;;;;;5104056;28;20050;-54
2021/10/03 10:24:57;;;;;;;6.60;2.53;;;27.60;78.10;;;;;;5105618;28;20028;-49
2021/10/03 10:27:24;;;;;;;11.50;2.67;;;27.60;78.10;;;;;;5105165;28;20027;-49
2021/10/03 10:30:13;;;;;;;6.45;3.38;;;27.60;78.10;;;;;;5105083;28;20122;-46
2021/10/03 10:32:59;;;;;;;5.05;2.80;;;27.60;78.20;;;;;;5104987;28;20377;-51
2021/10/03 10:35:28;;;;;;;5.15;2.33;;;27.60;78.20;;;;;;5105418;28;20024;-45
2021/10/03 10:37:59;;;;;;;13.80;3.25;;;27.50;78.10;;;;;;5105192;28;20019;-47
2021/10/03 10:40:34;;;;;;;8.07;3.28;;;27.50;78.20;;;;;;5104831;28;20317;-52
2021/10/03 10:43:03;;;;;;;7.60;3.78;;;27.50;78.30;;;;;;5105166;28;20028;-51
2021/10/03 10:45:36;;;;;;;7.38;4.35;;;27.50;78.30;;;;;;5105123;28;20020;-48
2021/10/03 10:48:12;;;;;;;8.52;3.95;;;27.50;78.50;;;;;;5104939;28;20028;-54
2021/10/03 10:50:58;;;;;;;12.63;4.43;;;27.50;78.60;;;;;;5104723;28;20087;-46
2021/10/03 10:53:35;;;;;;;11.65;7.90;;;27.50;79.00;;;;;;5104595;28;20036;-48
2021/10/03 10:56:16;;;;;;;18.33;8.55;;;27.50;79.20;;;;;;5104647;28;20045;-51
2021/10/03 10:58:52;;;;;;;15.50;8.38;;;27.50;79.40;;;;;;5105005;28;20020;-58
2021/10/03 11:01:30;;;;;;;14.40;7.57;;;27.50;79.60;;;;;;5104472;28;20044;-53
2021/10/03 11:04:01;;;;;;;13.60;8.18;;;27.40;79.80;;;;;;5105219;28;20012;-53
2021/10/03 11:06:28;;;;;;;18.60;8.38;;;27.50;80.10;;;;;;5104584;28;20313;-54
2021/10/03 11:09:00;;;;;;;15.30;6.95;;;27.50;80.20;;;;;;5104929;28;20028;-49
2021/10/03 11:11:28;;;;;;;14.02;6.13;;;27.50;80.20;;;;;;5104646;28;20016;-45
2021/10/03 11:13:57;;;;;;;16.13;6.00;;;27.50;80.20;;;;;;5104722;28;20024;-54
2021/10/03 11:16:25;;;;;;;10.25;5.90;;;27.50;80.30;;;;;;5104395;28;20027;-46
2021/10/03 11:18:59;;;;;;;11.90;5.57;;;27.50;80.40;;;;;;5104684;28;20016;-49
2021/10/03 11:21:32;;;;;;;8.23;5.05;;;27.50;80.40;;;;;;5104170;28;20023;-48
2021/10/03 11:24:22;;;;;;;11.32;4.82;;;27.60;80.50;;;;;;5102515;28;20035;-43
2021/10/03 11:26:54;;;;;;;9.40;5.63;;;27.50;80.30;;;;;;5102026;28;20031;-40
2021/10/03 11:29:24;;;;;;;14.52;5.65;;;27.60;80.40;;;;;;5102460;28;20135;-42
2021/10/03 11:32:02;;;;;;;13.93;4.80;;;27.60;80.20;;;;;;5102299;28;20047;-41
2021/10/03 11:34:35;;;;;;;6.38;4.35;;;27.70;80.00;;;;;;5102350;28;20047;-48
2021/10/03 11:37:07;;;;;;;9.38;3.67;;;27.70;79.70;;;;;;5102308;28;20023;-50
2021/10/03 11:39:48;;;;;;;9.15;4.28;;;27.80;79.40;;;;;;5102222;28;20112;-42
2021/10/03 11:42:37;;;;;;;7.82;3.50;;;27.80;79.20;;;;;;5102345;28;20023;-46
2021/10/03 11:45:20;;;;;;;8.00;3.75;;;27.80;79.10;;;;;;5101810;28;20036;-44
2021/10/03 11:47:52;;;;;;;6.95;3.92;;;27.90;79.00;;;;;;5102027;28;20028;-47
2021/10/03 11:50:25;;;;;;;8.98;3.47;;;27.90;79.10;;;;;;5102245;28;20304;-44
2021/10/03 11:52:57;;;;;;;13.23;4.32;;;28.00;79.30;;;;;;5102088;28;20035;-47
2021/10/03 11:55:36;;;;;;;;;;;28.00;79.20;;;;;;5102596;28;20094;-44
2021/10/03 11:58:08;;;;;;;6.22;3.65;;;28.00;79.00;;;;;;5102210;28;19918;-44
2021/10/03 12:01:03;;;;;;;8.45;3.25;;;28.00;79.00;;;;;;5102475;28;20099;-46
2021/10/03 12:03:32;;;;;;;6.72;3.13;;;28.10;79.10;;;;;;5106117;28;20059;-43
2021/10/03 12:06:00;;;;;;;6.03;3.53;;;28.10;79.20;;;;;;5106284;28;20028;-43
2021/10/03 12:08:27;;;;;;;4.00;3.03;;;28.20;79.30;;;;;;5107594;28;20036;-45
2021/10/03 12:11:00;;;;;;;9.20;3.00;;;28.20;79.20;;;;;;5107790;28;20057;-44
2021/10/03 12:13:33;;;;;;;6.32;3.20;;;28.30;79.30;;;;;;5108003;28;20031;-44
2021/10/03 12:16:02;;;;;;;9.35;2.97;;;28.30;79.30;;;;;;5107735;28;20024;-48
2021/10/03 12:18:29;;;;;;;4.60;2.83;;;28.30;79.40;;;;;;5107820;28;20034;-49
2021/10/03 12:21:00;;;;;;;5.82;3.08;;;28.40;79.50;;;;;;5107781;28;20081;-48
2021/10/03 12:23:58;;;;;;;3.42;2.60;;;28.40;79.50;;;;;;5107806;28;20205;-50
2021/10/03 12:26:37;;;;;;;4.45;2.70;;;28.40;79.50;;;;;;5107994;28;20099;-53
2021/10/03 12:29:07;;;;;;;5.53;2.78;;;28.40;79.50;;;;;;5108115;28;20079;-55
2021/10/03 12:31:44;;;;;;;4.60;2.50;;;28.50;79.60;;;;;;5107520;28;20024;-54
2021/10/03 12:34:17;;;;;;;4.00;2.45;;;28.50;79.70;;;;;;5107864;28;20216;-54
2021/10/03 12:36:49;;;;;;;;;;;28.50;79.70;;;;;;5107890;28;20020;-46
2021/10/03 12:39:29;;;;;;;3.78;2.58;;;28.50;79.80;;;;;;5107705;28;19904;-42
2021/10/03 12:42:01;;;;;;;7.30;3.90;;;28.50;80.00;;;;;;5107342;28;20141;-45
2021/10/03 12:44:34;;;;;;;5.07;3.42;;;28.60;80.10;;;;;;5107667;28;20024;-54
2021/10/03 12:47:03;;;;;;;9.40;3.58;;;28.60;80.10;;;;;;5106456;28;20339;-46
2021/10/03 12:49:35;;;;;;;6.32;3.47;;;28.60;80.10;;;;;;5107614;28;20032;-48
2021/10/03 12:52:03;;;;;;;5.00;3.10;;;28.60;80.10;;;;;;5105967;28;20046;-48